createdAt,value
2017-10-11T00:00:46.569Z,96.20
2017-10-11T00:03:14.005Z,96.20
2017-10-11T00:05:41.444Z,96.20
2017-10-11T00:08:09.644Z,96.10
2017-10-11T00:10:37.076Z,96.10
2017-10-11T00:13:05.293Z,96.20
2017-10-11T00:15:32.728Z,96.20
2017-10-11T00:18:00.165Z,96.10
2017-10-11T00:20:28.364Z,96.10
2017-10-11T00:22:55.793Z,96.10
2017-10-11T00:25:23.996Z,96.10
2017-10-11T00:27:51.423Z,96.10
2017-10-11T00:30:19.629Z,96.10
2017-10-11T00:32:47.061Z,96.10
2017-10-11T00:35:15.280Z,96.20
2017-10-11T00:37:42.713Z,96.20
2017-10-11T00:40:10.146Z,96.30
2017-10-11T00:42:38.361Z,96.40
2017-10-11T00:45:05.784Z,96.40
2017-10-11T00:47:33.987Z,96.60
2017-10-11T00:50:01.420Z,96.60
2017-10-11T00:52:28.864Z,96.80
2017-10-11T00:54:56.336Z,96.90
2017-10-11T00:57:23.782Z,96.90
2017-10-11T00:59:51.204Z,96.90
2017-10-11T01:02:18.639Z,96.90
2017-10-11T01:04:46.085Z,96.80
2017-10-11T01:07:13.544Z,96.80
2017-10-11T01:09:40.980Z,96.80
2017-10-11T01:12:08.421Z,96.70
2017-10-11T01:14:36.630Z,96.70
2017-10-11T01:17:04.065Z,96.70
2017-10-11T01:19:31.492Z,96.70
2017-10-11T01:21:58.932Z,96.70
2017-10-11T01:24:26.382Z,96.90
2017-10-11T01:26:53.828Z,96.90
2017-10-11T01:29:21.259Z,97.00
2017-10-11T01:31:48.705Z,97.00
2017-10-11T01:34:16.898Z,97.10
2017-10-11T01:36:44.362Z,97.10
2017-10-11T01:39:11.791Z,97.20
2017-10-11T01:41:39.992Z,97.10
2017-10-11T01:44:07.433Z,97.10
2017-10-11T01:46:34.875Z,97.10
2017-10-11T01:49:03.084Z,96.90
2017-10-11T01:51:30.537Z,96.90
2017-10-11T01:53:57.974Z,96.80
2017-10-11T01:56:25.404Z,96.90
2017-10-11T01:58:53.612Z,97.10
2017-10-11T02:01:21.049Z,96.80
2017-10-11T02:03:49.272Z,96.80
2017-10-11T02:06:16.707Z,96.80
2017-10-11T02:08:44.140Z,96.80
2017-10-11T02:11:12.342Z,96.80
2017-10-11T02:13:39.779Z,96.80
2017-10-11T02:16:07.213Z,96.80
2017-10-11T02:18:34.640Z,96.90
2017-10-11T02:21:02.073Z,96.90
2017-10-11T02:23:29.515Z,96.80
2017-10-11T02:25:56.949Z,96.70
2017-10-11T02:28:25.164Z,96.80
2017-10-11T02:30:52.615Z,96.70
2017-10-11T02:33:20.069Z,96.70
2017-10-11T02:35:47.493Z,96.70
2017-10-11T02:38:15.699Z,96.50
2017-10-11T02:40:43.124Z,96.50
2017-10-11T02:43:11.373Z,96.40
2017-10-11T02:45:38.799Z,96.40
2017-10-11T02:48:06.228Z,96.40
2017-10-11T02:50:34.421Z,96.40
2017-10-11T02:53:01.847Z,96.40
2017-10-11T02:55:30.068Z,96.50
2017-10-11T02:57:57.500Z,96.40
2017-10-11T03:00:24.940Z,96.40
2017-10-11T03:02:52.376Z,96.40
2017-10-11T03:05:19.815Z,96.40
2017-10-11T03:07:47.245Z,96.50
2017-10-11T03:10:14.693Z,96.50
2017-10-11T03:12:42.111Z,96.40
2017-10-11T03:15:10.328Z,96.40
2017-10-11T03:17:37.760Z,96.40
2017-10-11T03:20:05.205Z,96.40
2017-10-11T03:22:33.403Z,96.30
2017-10-11T03:25:00.849Z,96.30
2017-10-11T03:27:28.277Z,96.30
2017-10-11T03:29:55.712Z,96.30
2017-10-11T03:32:23.978Z,96.30
2017-10-11T03:34:51.438Z,96.20
2017-10-11T03:37:18.834Z,96.20
2017-10-11T03:39:47.050Z,96.50
2017-10-11T03:42:14.484Z,96.40
2017-10-11T03:44:41.935Z,96.50
2017-10-11T03:47:09.377Z,96.50
2017-10-11T03:49:37.574Z,96.40
2017-10-11T03:52:05.019Z,96.40
2017-10-11T03:54:33.204Z,96.40
2017-10-11T03:57:00.646Z,96.40
2017-10-11T03:59:28.836Z,96.30
2017-10-11T04:01:56.271Z,96.20
2017-10-11T04:04:24.477Z,96.40
2017-10-11T04:06:51.904Z,96.20
2017-10-11T04:09:20.119Z,96.30
2017-10-11T04:11:47.558Z,96.20
2017-10-11T04:14:14.986Z,96.20
2017-10-11T04:16:43.188Z,96.50
2017-10-11T04:19:10.641Z,96.10
2017-10-11T04:21:38.086Z,96.20
2017-10-11T04:24:06.272Z,96.10
2017-10-11T04:26:33.716Z,96.10
2017-10-11T04:29:01.912Z,96.10
2017-10-11T04:31:29.359Z,96.00
2017-10-11T04:33:57.552Z,96.20
2017-10-11T04:36:25.000Z,96.20
2017-10-11T04:38:52.433Z,96.20
2017-10-11T04:41:20.646Z,96.10
2017-10-11T04:43:48.076Z,96.10
2017-10-11T04:46:16.291Z,96.30
2017-10-11T04:48:43.733Z,96.30
2017-10-11T04:51:11.171Z,96.10
2017-10-11T04:53:38.616Z,96.00
2017-10-11T04:56:06.816Z,96.20
2017-10-11T04:58:34.261Z,96.20
2017-10-11T05:01:01.705Z,96.10
2017-10-11T05:03:29.905Z,96.20
2017-10-11T05:05:57.329Z,96.20
2017-10-11T05:08:25.531Z,96.00
2017-10-11T05:10:52.965Z,96.00
2017-10-11T05:13:20.406Z,95.90
2017-10-11T05:15:47.859Z,95.80
2017-10-11T05:18:15.296Z,95.80
2017-10-11T05:20:42.755Z,95.90
2017-10-11T05:23:10.193Z,95.70
2017-10-11T05:25:37.641Z,95.50
2017-10-11T05:28:05.096Z,95.60
2017-10-11T05:30:32.524Z,95.50
2017-10-11T05:33:00.729Z,95.60
2017-10-11T05:35:28.168Z,95.60
2017-10-11T05:37:55.616Z,95.60
2017-10-11T05:40:23.045Z,95.60
2017-10-11T05:42:50.486Z,95.50
2017-10-11T05:45:17.953Z,96.00
2017-10-11T05:47:45.377Z,95.70
2017-10-11T05:50:12.811Z,95.50
2017-10-11T05:52:40.245Z,95.40
2017-10-11T05:55:08.445Z,95.20
2017-10-11T05:57:35.885Z,95.20
2017-10-11T06:00:03.334Z,95.10
2017-10-11T06:02:31.560Z,94.90
2017-10-11T06:04:58.983Z,94.90
2017-10-11T06:07:26.419Z,94.70
2017-10-11T06:09:54.626Z,94.70
2017-10-11T06:12:22.055Z,94.60
2017-10-11T06:14:50.269Z,94.70
2017-10-11T06:17:17.696Z,95.00
2017-10-11T06:19:45.140Z,94.70
2017-10-11T06:22:13.336Z,94.50
2017-10-11T06:24:40.776Z,94.50
2017-10-11T06:27:08.984Z,94.40
2017-10-11T06:29:36.421Z,94.30
2017-10-11T06:32:03.853Z,94.30
2017-10-11T06:34:32.061Z,94.20
2017-10-11T06:36:59.493Z,94.20
2017-10-11T06:39:27.705Z,93.90
2017-10-11T06:41:55.164Z,93.90
2017-10-11T06:44:22.610Z,93.90
2017-10-11T06:46:50.041Z,94.00
2017-10-11T06:49:18.245Z,94.00
2017-10-11T06:51:45.675Z,94.00
2017-10-11T06:54:13.892Z,93.90
2017-10-11T06:56:41.337Z,93.90
2017-10-11T06:59:08.779Z,93.80
2017-10-11T07:01:36.219Z,94.20
2017-10-11T07:04:04.420Z,94.00
2017-10-11T07:06:31.852Z,94.00
2017-10-11T07:09:00.062Z,94.00
2017-10-11T07:11:27.495Z,94.00
2017-10-11T07:13:54.928Z,93.90
2017-10-11T07:16:23.135Z,93.50
2017-10-11T07:18:50.561Z,93.50
2017-10-11T07:21:18.776Z,93.00
2017-10-11T07:23:46.212Z,93.00
2017-10-11T07:26:13.654Z,92.80
2017-10-11T07:28:41.840Z,92.70
2017-10-11T07:31:09.277Z,92.70
2017-10-11T07:33:37.486Z,92.00
2017-10-11T07:36:04.925Z,92.00
2017-10-11T07:38:32.352Z,92.00
2017-10-11T07:40:59.780Z,91.50
2017-10-11T07:43:27.208Z,91.70
2017-10-11T07:45:54.639Z,91.40
2017-10-11T07:48:22.835Z,90.50
2017-10-11T07:50:50.294Z,90.50
2017-10-11T07:53:17.715Z,90.50
2017-10-11T07:55:45.160Z,90.40
2017-10-11T07:58:12.597Z,90.70
2017-10-11T08:00:40.025Z,90.10
2017-10-11T08:03:07.476Z,90.10
2017-10-11T08:05:34.900Z,90.30
2017-10-11T08:08:03.103Z,90.80
2017-10-11T08:10:30.537Z,90.70
2017-10-11T08:12:58.742Z,90.40
2017-10-11T08:15:26.167Z,90.10
2017-10-11T08:17:54.363Z,90.40
2017-10-11T08:20:21.792Z,90.60
2017-10-11T08:22:49.239Z,90.50
2017-10-11T08:25:16.657Z,90.30
2017-10-11T08:27:44.119Z,90.60
2017-10-11T08:30:11.553Z,90.60
2017-10-11T08:32:38.991Z,90.50
2017-10-11T08:35:22.054Z,90.90
2017-10-11T08:37:49.490Z,90.90
2017-10-11T08:40:16.939Z,90.70
2017-10-11T08:42:44.373Z,90.70
2017-10-11T08:45:12.562Z,91.40
2017-10-11T08:47:40.769Z,91.50
2017-10-11T08:50:08.192Z,91.50
2017-10-11T08:52:36.401Z,90.70
2017-10-11T08:55:03.859Z,90.70
2017-10-11T08:57:31.288Z,90.60
2017-10-11T08:59:58.712Z,90.80
2017-10-11T09:02:26.157Z,90.90
2017-10-11T09:04:53.594Z,91.50
2017-10-11T09:07:21.021Z,91.00
2017-10-11T09:09:48.459Z,91.40
2017-10-11T09:12:16.652Z,91.30
2017-10-11T09:14:44.103Z,91.30
2017-10-11T09:17:12.290Z,92.00
2017-10-11T09:19:39.721Z,91.90
2017-10-11T09:22:07.909Z,91.10
2017-10-11T09:24:35.346Z,91.10
2017-10-11T09:27:03.576Z,91.30
2017-10-11T09:29:31.020Z,91.20
2017-10-11T09:31:58.449Z,90.80
2017-10-11T09:34:26.651Z,90.30
2017-10-11T09:36:54.078Z,90.30
2017-10-11T09:39:22.278Z,89.90
2017-10-11T09:41:49.704Z,89.90
2017-10-11T09:44:17.913Z,90.00
2017-10-11T09:46:45.349Z,90.00
2017-10-11T09:49:12.782Z,90.40
2017-10-11T09:51:40.212Z,90.50
2017-10-11T09:54:07.644Z,90.30
2017-10-11T09:56:35.085Z,90.20
2017-10-11T09:59:02.508Z,90.30
2017-10-11T10:01:30.700Z,90.90
2017-10-11T10:03:58.902Z,90.00
2017-10-11T10:06:26.324Z,90.00
2017-10-11T10:08:54.519Z,89.70
2017-10-11T10:11:21.949Z,89.70
2017-10-11T10:13:50.152Z,90.50
2017-10-11T10:16:17.593Z,90.80
2017-10-11T10:18:45.020Z,90.40
2017-10-11T10:21:12.457Z,87.90
2017-10-11T10:23:39.880Z,90.10
2017-10-11T10:26:07.316Z,91.70
2017-10-11T10:28:35.510Z,87.60
2017-10-11T10:31:02.945Z,87.40
2017-10-11T10:33:31.132Z,82.80
2017-10-11T10:35:58.568Z,83.00
2017-10-11T10:38:26.764Z,82.60
2017-10-11T10:40:54.203Z,82.60
2017-10-11T10:43:22.393Z,82.30
2017-10-11T10:45:49.824Z,82.30
2017-10-11T10:48:18.025Z,84.00
2017-10-11T10:50:45.458Z,84.00
2017-10-11T10:53:13.661Z,81.90
2017-10-11T10:55:41.092Z,81.90
2017-10-11T10:58:09.280Z,86.90
2017-10-11T11:00:37.541Z,82.80
2017-10-11T11:03:05.733Z,86.30
2017-10-11T11:05:33.173Z,86.20
2017-10-11T11:08:00.608Z,83.40
2017-10-11T11:10:28.067Z,82.80
2017-10-11T11:12:55.501Z,83.40
2017-10-11T11:15:22.920Z,85.90
2017-10-11T11:17:50.367Z,85.10
2017-10-11T11:20:18.568Z,83.70
2017-10-11T11:22:45.993Z,83.60
2017-10-11T11:25:14.184Z,84.40
2017-10-11T11:27:41.621Z,84.40
2017-10-11T11:30:09.817Z,84.50
2017-10-11T11:32:37.248Z,84.50
2017-10-11T11:35:05.449Z,79.50
2017-10-11T11:37:32.876Z,79.60
2017-10-11T11:40:01.067Z,81.80
2017-10-11T11:42:28.509Z,81.50
2017-10-11T11:44:56.701Z,83.20
2017-10-11T11:47:24.907Z,80.40
2017-10-11T11:49:52.324Z,80.30
2017-10-11T11:52:20.534Z,83.80
2017-10-11T11:54:47.958Z,83.70
2017-10-11T11:57:16.164Z,85.10
2017-10-11T11:59:43.581Z,85.10
2017-10-11T12:02:11.800Z,84.70
2017-10-11T12:04:39.233Z,84.60
2017-10-11T12:07:06.669Z,84.10
2017-10-11T12:09:34.865Z,86.10
2017-10-11T12:12:02.327Z,86.00
2017-10-11T12:14:30.515Z,85.60
2017-10-11T12:16:57.937Z,85.50
2017-10-11T12:19:26.155Z,84.30
2017-10-11T12:21:53.583Z,84.40
2017-10-11T12:24:21.584Z,85.40
2017-10-11T12:26:49.008Z,81.30
2017-10-11T12:29:16.440Z,84.80
2017-10-11T12:31:44.634Z,84.20
2017-10-11T12:34:12.836Z,84.70
2017-10-11T12:36:40.261Z,84.80
2017-10-11T12:39:08.466Z,83.20
2017-10-11T12:41:35.892Z,83.20
2017-10-11T12:44:04.093Z,81.30
2017-10-11T12:46:31.529Z,81.30
2017-10-11T12:48:58.960Z,85.30
2017-10-11T12:51:26.394Z,86.10
2017-10-11T12:53:53.828Z,84.10
2017-10-11T12:56:21.284Z,79.10
2017-10-11T12:58:48.725Z,83.80
2017-10-11T13:01:16.145Z,81.40
2017-10-11T13:03:43.588Z,82.80
2017-10-11T13:06:11.016Z,83.50
2017-10-11T13:08:38.459Z,84.40
2017-10-11T13:11:05.883Z,83.00
2017-10-11T13:13:34.095Z,82.80
2017-10-11T13:16:01.527Z,82.80
2017-10-11T13:18:29.738Z,86.50
2017-10-11T13:20:57.168Z,86.50
2017-10-11T13:23:24.608Z,85.80
2017-10-11T13:25:52.814Z,84.10
2017-10-11T13:28:20.251Z,84.10
2017-10-11T13:30:47.680Z,79.20
2017-10-11T13:33:15.100Z,81.10
2017-10-11T13:35:42.540Z,85.70
2017-10-11T13:38:09.968Z,85.10
2017-10-11T13:40:38.178Z,85.50
2017-10-11T13:43:05.596Z,85.40
2017-10-11T13:45:33.827Z,86.40
2017-10-11T13:48:01.259Z,86.40
2017-10-11T13:50:28.694Z,85.60
2017-10-11T13:52:56.122Z,87.90
2017-10-11T13:55:23.559Z,82.10
2017-10-11T13:57:51.002Z,86.40
2017-10-11T14:00:18.442Z,88.00
2017-10-11T14:02:45.872Z,87.40
2017-10-11T14:05:13.322Z,88.70
2017-10-11T14:07:41.519Z,87.90
2017-10-11T14:10:08.961Z,87.80
2017-10-11T14:12:36.402Z,86.80
2017-10-11T14:15:03.833Z,89.30
2017-10-11T14:17:31.304Z,86.00
2017-10-11T14:19:58.747Z,86.70
2017-10-11T14:22:26.177Z,88.20
2017-10-11T14:24:53.601Z,88.30
2017-10-11T14:27:21.031Z,87.30
2017-10-11T14:29:48.456Z,84.50
2017-10-11T14:32:15.898Z,84.40
2017-10-11T14:34:43.326Z,87.90
2017-10-11T14:37:11.533Z,84.30
2017-10-11T14:39:38.952Z,84.30
2017-10-11T14:42:07.167Z,88.40
2017-10-11T14:44:34.589Z,88.40
2017-10-11T14:47:02.784Z,86.70
2017-10-11T14:49:30.216Z,86.60
2017-10-11T14:51:58.417Z,89.50
2017-10-11T14:54:25.853Z,89.50
2017-10-11T14:59:25.694Z,83.70
2017-10-11T15:01:53.126Z,83.60
2017-10-11T15:04:22.247Z,84.30
2017-10-11T15:06:49.687Z,84.30
2017-10-11T15:09:17.880Z,85.20
2017-10-11T15:11:45.320Z,85.10
2017-10-11T15:14:13.518Z,85.50
2017-10-11T15:16:45.250Z,85.50
2017-10-11T15:19:13.446Z,85.40
2017-10-11T15:21:40.896Z,85.40
2017-10-11T15:24:08.344Z,85.30
2017-10-11T15:26:36.527Z,86.30
2017-10-11T15:29:03.953Z,86.30
2017-10-11T15:31:32.147Z,84.70
2017-10-11T15:33:59.594Z,84.60
2017-10-11T15:36:27.786Z,83.50
2017-10-11T15:38:55.225Z,83.50
2017-10-11T15:41:23.417Z,84.30
2017-10-11T15:43:50.863Z,84.20
2017-10-11T15:46:19.049Z,84.00
2017-10-11T15:48:46.481Z,84.00
2017-10-11T15:51:14.676Z,84.60
2017-10-11T15:53:42.105Z,85.30
2017-10-11T15:56:09.536Z,84.50
2017-10-11T15:58:37.100Z,84.30
2017-10-11T16:01:04.540Z,84.40
2017-10-11T16:03:31.982Z,84.90
2017-10-11T16:05:59.410Z,84.80
2017-10-11T16:08:27.613Z,86.30
2017-10-11T16:10:55.036Z,86.30
2017-10-11T16:13:23.249Z,87.20
2017-10-11T16:15:50.684Z,87.10
2017-10-11T16:18:18.116Z,87.10
2017-10-11T16:20:46.312Z,85.10
2017-10-11T16:23:13.760Z,85.10
2017-10-11T16:25:41.957Z,84.10
2017-10-11T16:28:09.388Z,84.10
2017-10-11T16:30:37.599Z,85.10
2017-10-11T16:33:05.025Z,85.10
2017-10-11T16:35:33.224Z,87.50
2017-10-11T16:38:00.645Z,87.50
2017-10-11T16:40:28.841Z,90.80
2017-10-11T16:42:56.269Z,90.80
2017-10-11T16:45:24.478Z,90.50
2017-10-11T16:47:51.899Z,90.20
2017-10-11T16:50:20.102Z,90.60
2017-10-11T16:52:47.533Z,90.60
2017-10-11T16:55:15.746Z,90.50
2017-10-11T16:57:43.165Z,90.50
2017-10-11T17:00:11.367Z,89.20
2017-10-11T17:02:38.788Z,89.20
2017-10-11T17:05:06.267Z,89.70
2017-10-11T17:07:34.460Z,90.10
2017-10-11T17:10:01.888Z,90.10
2017-10-11T17:12:30.080Z,90.60
2017-10-11T17:14:57.525Z,90.60
2017-10-11T17:17:25.713Z,91.00
2017-10-11T17:19:53.137Z,91.00
2017-10-11T17:22:20.574Z,90.50
2017-10-11T17:24:48.018Z,90.30
2017-10-11T17:27:15.442Z,90.00
2017-10-11T17:29:42.880Z,88.90
2017-10-11T17:32:11.082Z,90.90
2017-10-11T17:34:38.504Z,90.80
2017-10-11T17:37:06.705Z,91.00
2017-10-11T17:39:34.137Z,91.00
2017-10-11T17:42:02.336Z,91.30
2017-10-11T17:44:29.764Z,91.30
2017-10-11T17:46:57.192Z,91.20
2017-10-11T17:49:24.624Z,91.50
2017-10-11T17:51:52.064Z,91.50
2017-10-11T17:54:19.500Z,91.70
2017-10-11T17:56:47.701Z,91.50
2017-10-11T17:59:15.128Z,91.50
2017-10-11T18:01:43.331Z,91.80
2017-10-11T18:04:10.758Z,91.80
2017-10-11T18:06:38.960Z,91.90
2017-10-11T18:09:06.393Z,91.90
2017-10-11T18:11:34.598Z,92.30
2017-10-11T18:14:02.026Z,92.30
2017-10-11T18:16:30.259Z,91.80
2017-10-11T18:18:57.655Z,91.80
2017-10-11T18:21:25.852Z,92.50
2017-10-11T18:23:53.280Z,92.50
2017-10-11T18:26:21.500Z,92.60
2017-10-11T18:28:48.927Z,92.50
2017-10-11T18:31:17.129Z,92.10
2017-10-11T18:33:44.573Z,92.10
2017-10-11T18:36:12.028Z,92.10
2017-10-11T18:38:39.460Z,92.20
2017-10-11T18:41:07.669Z,92.50
2017-10-11T18:43:35.103Z,92.50
2017-10-11T18:46:03.292Z,92.40
2017-10-11T18:48:30.725Z,92.40
2017-10-11T18:50:58.916Z,91.30
2017-10-11T18:53:26.350Z,91.20
2017-10-11T18:55:54.536Z,91.30
2017-10-11T18:58:22.749Z,91.40
2017-10-11T19:00:50.181Z,91.40
2017-10-11T19:03:17.612Z,91.60
2017-10-11T19:05:45.813Z,91.30
2017-10-11T19:08:13.240Z,91.30
2017-10-11T19:10:41.444Z,91.40
2017-10-11T19:13:08.873Z,91.70
2017-10-11T19:15:37.079Z,91.80
2017-10-11T19:18:04.504Z,91.70
2017-10-11T19:20:31.933Z,91.40
2017-10-11T19:22:59.369Z,90.80
2017-10-11T19:25:26.802Z,90.80
2017-10-11T19:27:54.240Z,90.80
2017-10-11T19:30:22.433Z,90.90
2017-10-11T19:32:49.909Z,90.80
2017-10-11T19:35:17.340Z,90.60
2017-10-11T19:37:44.768Z,90.50
2017-10-11T19:40:12.206Z,90.70
2017-10-11T19:42:39.632Z,90.80
2017-10-11T19:45:07.077Z,91.50
2017-10-11T19:47:34.502Z,91.80
2017-10-11T19:50:02.696Z,92.00
2017-10-11T19:52:30.122Z,91.90
2017-10-11T19:54:57.584Z,92.20
2017-10-11T19:57:25.005Z,91.60
2017-10-11T19:59:52.460Z,91.20
2017-10-11T20:02:19.892Z,91.40
2017-10-11T20:04:47.328Z,92.30
2017-10-11T20:07:15.523Z,92.20
2017-10-11T20:09:42.959Z,92.20
2017-10-11T20:12:11.156Z,92.60
2017-10-11T20:14:38.603Z,92.60
2017-10-11T20:17:08.082Z,92.80
2017-10-11T20:19:35.513Z,92.60
2017-10-11T20:22:02.940Z,92.40
2017-10-11T20:24:30.401Z,92.70
2017-10-11T20:26:57.824Z,92.90
2017-10-11T20:29:26.030Z,92.00
2017-10-11T20:31:53.457Z,92.00
2017-10-11T20:34:21.669Z,93.00
2017-10-11T20:36:49.102Z,93.00
2017-10-11T20:39:16.528Z,93.10
2017-10-11T20:41:44.732Z,92.60
2017-10-11T20:44:12.156Z,92.30
2017-10-11T20:46:39.592Z,92.90
2017-10-11T20:49:07.023Z,93.00
2017-10-11T20:51:34.462Z,93.10
2017-10-11T20:54:01.886Z,93.40
2017-10-11T20:56:30.093Z,93.50
2017-10-11T20:58:57.524Z,93.10
2017-10-11T21:01:25.715Z,92.90
2017-10-11T21:03:53.139Z,92.90
2017-10-11T21:06:20.576Z,92.70
2017-10-11T21:08:48.007Z,92.40
2017-10-11T21:11:15.468Z,92.10
2017-10-11T21:13:42.896Z,92.00
2017-10-11T21:16:10.333Z,91.80
2017-10-11T21:18:38.554Z,91.70
2017-10-11T21:21:05.967Z,91.70
2017-10-11T21:23:33.389Z,91.80
2017-10-11T21:26:00.836Z,91.90
2017-10-11T21:28:28.282Z,92.30
2017-10-11T21:30:55.705Z,92.20
2017-10-11T21:33:23.905Z,92.90
2017-10-11T21:35:51.337Z,92.80
2017-10-11T21:38:19.549Z,93.10
2017-10-11T21:40:46.996Z,93.10
2017-10-11T21:43:14.432Z,93.10
2017-10-11T21:45:41.861Z,93.40
2017-10-11T21:48:09.296Z,93.30
2017-10-11T21:50:36.724Z,93.40
2017-10-11T21:53:04.160Z,93.30
2017-10-11T21:55:31.592Z,93.20
2017-10-11T21:57:59.797Z,92.60
2017-10-11T22:00:27.228Z,93.00
2017-10-11T22:02:55.446Z,92.80
2017-10-11T22:05:22.872Z,92.80
2017-10-11T22:07:51.085Z,92.60
2017-10-11T22:10:20.537Z,92.60
2017-10-11T22:12:48.808Z,92.60
2017-10-11T22:15:17.012Z,92.80
2017-10-11T22:17:44.448Z,92.80
2017-10-11T22:20:12.640Z,92.80
2017-10-11T22:22:40.077Z,92.80
2017-10-11T22:25:08.268Z,93.00
2017-10-11T22:27:35.708Z,93.00
2017-10-11T22:30:03.903Z,93.10
2017-10-11T22:32:31.347Z,93.10
2017-10-11T22:34:59.546Z,93.30
2017-10-11T22:37:26.982Z,93.20
2017-10-11T22:39:55.167Z,93.40
2017-10-11T22:42:22.601Z,93.50
2017-10-11T22:44:50.818Z,93.70
2017-10-11T22:47:18.252Z,93.70
2017-10-11T22:49:45.681Z,93.50
2017-10-11T22:52:13.120Z,93.50
2017-10-11T22:54:40.564Z,93.60
2017-10-11T22:57:07.985Z,93.60
2017-10-11T22:59:35.429Z,93.70
2017-10-11T23:02:03.620Z,94.00
2017-10-11T23:04:31.052Z,94.00
2017-10-11T23:06:59.241Z,93.90
2017-10-11T23:09:26.675Z,93.90
2017-10-11T23:11:54.872Z,94.30
2017-10-11T23:14:22.313Z,94.30
2017-10-11T23:16:50.500Z,94.50
2017-10-11T23:19:17.932Z,94.50
2017-10-11T23:21:45.359Z,94.20
2017-10-11T23:24:12.802Z,94.10
2017-10-11T23:26:40.239Z,94.10
2017-10-11T23:29:07.681Z,94.20
2017-10-11T23:31:35.885Z,94.70
2017-10-11T23:34:03.305Z,94.70
2017-10-11T23:36:31.504Z,94.40
2017-10-11T23:38:58.940Z,94.40
2017-10-11T23:41:27.149Z,94.70
2017-10-11T23:43:54.602Z,94.60
2017-10-11T23:46:22.028Z,94.30
2017-10-11T23:48:50.220Z,94.30
2017-10-11T23:51:17.661Z,94.30
2017-10-11T23:53:45.852Z,94.20
2017-10-11T23:56:13.294Z,94.20
2017-10-11T23:58:41.494Z,94.30
